sensor_id;sensor_type;location;lat;lon;timestamp;pressure;altitude;pressure_sealevel;temperature;humidity
53659;BME280;41524;35.624;139.698;2022-12-11T00:00:15;100913.00;;;16.29;30.83
53659;BME280;41524;35.624;139.698;2022-12-11T00:05:15;100917.00;;;12.16;36.88
53659;BME280;41524;35.624;139.698;2022-12-11T00:10:11;100921.00;;;11.88;38.55
53659;BME280;41524;35.624;139.698;2022-12-11T00:15:16;100927.00;;;11.48;39.92
53659;BME280;41524;35.624;139.698;2022-12-11T00:20:11;100943.00;;;11.86;39.76
53659;BME280;41524;35.624;139.698;2022-12-11T00:25:11;100943.00;;;11.88;39.81
53659;BME280;41524;35.624;139.698;2022-12-11T00:30:15;100949.00;;;11.36;40.84
53659;BME280;41524;35.624;139.698;2022-12-11T00:35:10;100943.00;;;10.95;41.59
53659;BME280;41524;35.624;139.698;2022-12-11T00:40:17;100957.00;;;10.57;43.16
53659;BME280;41524;35.624;139.698;2022-12-11T00:45:11;100973.00;;;11.15;42.31
53659;BME280;41524;35.624;139.698;2022-12-11T00:50:16;100976.00;;;9.82;44.57
53659;BME280;41524;35.624;139.698;2022-12-11T00:55:10;100978.00;;;9.69;45.05
53659;BME280;41524;35.624;139.698;2022-12-11T01:00:14;100970.00;;;9.80;45.10
53659;BME280;41524;35.624;139.698;2022-12-11T01:05:12;100958.00;;;9.97;44.85
53659;BME280;41524;35.624;139.698;2022-12-11T01:10:12;100961.00;;;11.00;43.80
53659;BME280;41524;35.624;139.698;2022-12-11T01:15:10;100958.00;;;11.13;43.45
53659;BME280;41524;35.624;139.698;2022-12-11T01:20:16;100960.00;;;11.32;43.03
53659;BME280;41524;35.624;139.698;2022-12-11T01:25:16;100956.00;;;12.72;41.95
53659;BME280;41524;35.624;139.698;2022-12-11T01:30:22;100949.00;;;12.41;42.12
53659;BME280;41524;35.624;139.698;2022-12-11T01:35:16;100947.00;;;12.62;43.56
53659;BME280;41524;35.624;139.698;2022-12-11T01:40:14;100939.00;;;12.03;42.70
53659;BME280;41524;35.624;139.698;2022-12-11T01:45:27;100934.00;;;13.43;43.73
53659;BME280;41524;35.624;139.698;2022-12-11T01:50:11;100935.00;;;12.53;44.98
53659;BME280;41524;35.624;139.698;2022-12-11T01:55:11;100939.00;;;15.09;40.71
53659;BME280;41524;35.624;139.698;2022-12-11T02:00:16;100937.00;;;14.18;42.48
53659;BME280;41524;35.624;139.698;2022-12-11T02:05:15;100929.00;;;15.61;40.29
53659;BME280;41524;35.624;139.698;2022-12-11T02:10:12;100923.00;;;14.55;41.69
53659;BME280;41524;35.624;139.698;2022-12-11T02:15:20;100909.00;;;15.58;40.41
53659;BME280;41524;35.624;139.698;2022-12-11T02:20:17;100901.00;;;18.11;36.62
53659;BME280;41524;35.624;139.698;2022-12-11T02:25:20;100906.00;;;15.55;39.94
53659;BME280;41524;35.624;139.698;2022-12-11T02:30:12;100901.00;;;15.63;40.13
53659;BME280;41524;35.624;139.698;2022-12-11T02:35:20;100879.00;;;17.53;37.63
53659;BME280;41524;35.624;139.698;2022-12-11T02:40:13;100874.00;;;16.35;37.97
53659;BME280;41524;35.624;139.698;2022-12-11T02:45:12;100864.00;;;12.90;42.21
53659;BME280;41524;35.624;139.698;2022-12-11T02:50:14;100851.00;;;17.70;35.90
53659;BME280;41524;35.624;139.698;2022-12-11T02:55:18;100856.00;;;13.59;41.72
53659;BME280;41524;35.624;139.698;2022-12-11T03:00:12;100853.00;;;16.25;38.35
53659;BME280;41524;35.624;139.698;2022-12-11T03:05:12;100861.00;;;16.99;36.72
53659;BME280;41524;35.624;139.698;2022-12-11T03:10:18;100853.00;;;17.80;34.80
53659;BME280;41524;35.624;139.698;2022-12-11T03:15:16;100858.00;;;19.85;33.43
53659;BME280;41524;35.624;139.698;2022-12-11T03:20:21;100851.00;;;18.58;32.93
53659;BME280;41524;35.624;139.698;2022-12-11T03:25:15;100862.00;;;19.27;32.91
53659;BME280;41524;35.624;139.698;2022-12-11T03:30:22;100854.00;;;17.75;34.56
53659;BME280;41524;35.624;139.698;2022-12-11T03:35:16;100864.00;;;18.07;36.44
53659;BME280;41524;35.624;139.698;2022-12-11T03:40:18;100847.00;;;19.99;31.75
53659;BME280;41524;35.624;139.698;2022-12-11T03:45:12;100858.00;;;24.39;26.73
53659;BME280;41524;35.624;139.698;2022-12-11T03:50:17;100859.00;;;28.02;23.49
53659;BME280;41524;35.624;139.698;2022-12-11T03:55:18;100859.00;;;15.71;34.91
53659;BME280;41524;35.624;139.698;2022-12-11T04:00:18;100839.00;;;26.02;25.26
53659;BME280;41524;35.624;139.698;2022-12-11T04:05:15;100829.00;;;25.43;25.14
53659;BME280;41524;35.624;139.698;2022-12-11T04:10:11;100829.00;;;25.04;24.03
53659;BME280;41524;35.624;139.698;2022-12-11T04:15:11;100828.00;;;26.35;24.41
53659;BME280;41524;35.624;139.698;2022-12-11T04:20:11;100824.00;;;16.80;31.30
53659;BME280;41524;35.624;139.698;2022-12-11T04:25:21;100832.00;;;23.01;26.81
53659;BME280;41524;35.624;139.698;2022-12-11T04:30:14;100809.00;;;28.75;21.92
53659;BME280;41524;35.624;139.698;2022-12-11T04:35:13;100814.00;;;20.31;28.85
53659;BME280;41524;35.624;139.698;2022-12-11T04:40:13;100825.00;;;14.24;38.12
53659;BME280;41524;35.624;139.698;2022-12-11T04:45:11;100820.00;;;14.26;41.14
53659;BME280;41524;35.624;139.698;2022-12-11T04:50:15;100807.00;;;15.65;39.61
53659;BME280;41524;35.624;139.698;2022-12-11T04:55:12;100799.00;;;15.36;40.24
53659;BME280;41524;35.624;139.698;2022-12-11T05:00:11;100805.00;;;15.67;39.86
53659;BME280;41524;35.624;139.698;2022-12-11T05:05:11;100805.00;;;15.62;40.68
53659;BME280;41524;35.624;139.698;2022-12-11T05:10:15;100813.00;;;14.86;41.22
53659;BME280;41524;35.624;139.698;2022-12-11T05:15:11;100832.00;;;13.84;43.26
53659;BME280;41524;35.624;139.698;2022-12-11T05:20:11;100844.00;;;11.00;51.92
53659;BME280;41524;35.624;139.698;2022-12-11T05:25:11;100854.00;;;8.97;58.08
53659;BME280;41524;35.624;139.698;2022-12-11T05:30:17;100854.00;;;8.55;59.94
53659;BME280;41524;35.624;139.698;2022-12-11T05:35:11;100871.00;;;8.84;58.30
53659;BME280;41524;35.624;139.698;2022-12-11T05:40:12;100875.00;;;8.94;58.19
53659;BME280;41524;35.624;139.698;2022-12-11T05:45:12;100896.00;;;9.52;57.20
53659;BME280;41524;35.624;139.698;2022-12-11T05:50:11;100903.00;;;9.63;55.94
53659;BME280;41524;35.624;139.698;2022-12-11T05:55:11;100909.00;;;8.14;58.66
53659;BME280;41524;35.624;139.698;2022-12-11T06:00:13;100925.00;;;8.86;57.90
53659;BME280;41524;35.624;139.698;2022-12-11T06:05:10;100924.00;;;9.21;56.01
53659;BME280;41524;35.624;139.698;2022-12-11T06:10:11;100927.00;;;8.41;58.64
53659;BME280;41524;35.624;139.698;2022-12-11T06:15:16;100927.00;;;10.64;53.00
53659;BME280;41524;35.624;139.698;2022-12-11T06:20:21;100935.00;;;8.31;58.21
53659;BME280;41524;35.624;139.698;2022-12-11T06:25:11;100939.00;;;8.48;58.63
53659;BME280;41524;35.624;139.698;2022-12-11T06:30:15;100950.00;;;8.19;59.53
53659;BME280;41524;35.624;139.698;2022-12-11T06:35:11;100964.00;;;7.71;60.17
53659;BME280;41524;35.624;139.698;2022-12-11T06:40:17;100971.00;;;8.36;59.29
53659;BME280;41524;35.624;139.698;2022-12-11T06:45:12;100979.00;;;8.06;58.88
53659;BME280;41524;35.624;139.698;2022-12-11T06:50:12;100989.00;;;8.50;57.85
53659;BME280;41524;35.624;139.698;2022-12-11T06:55:11;101006.00;;;7.28;61.43
53659;BME280;41524;35.624;139.698;2022-12-11T07:00:12;101009.00;;;7.83;60.05
53659;BME280;41524;35.624;139.698;2022-12-11T07:05:20;101013.00;;;7.27;60.68
53659;BME280;41524;35.624;139.698;2022-12-11T07:10:11;101026.00;;;7.89;59.88
53659;BME280;41524;35.624;139.698;2022-12-11T07:15:11;101033.00;;;7.79;58.79
53659;BME280;41524;35.624;139.698;2022-12-11T07:20:13;101042.00;;;7.59;59.94
53659;BME280;41524;35.624;139.698;2022-12-11T07:25:10;101055.00;;;7.39;59.33
53659;BME280;41524;35.624;139.698;2022-12-11T07:30:16;101058.00;;;7.79;57.33
53659;BME280;41524;35.624;139.698;2022-12-11T07:35:11;101061.00;;;7.15;59.00
53659;BME280;41524;35.624;139.698;2022-12-11T07:40:11;101076.00;;;8.50;55.21
53659;BME280;41524;35.624;139.698;2022-12-11T07:45:16;101089.00;;;8.79;51.32
53659;BME280;41524;35.624;139.698;2022-12-11T07:50:13;101099.00;;;6.47;57.59
53659;BME280;41524;35.624;139.698;2022-12-11T07:55:16;101115.00;;;7.32;56.71
53659;BME280;41524;35.624;139.698;2022-12-11T08:00:11;101124.00;;;8.21;51.49
53659;BME280;41524;35.624;139.698;2022-12-11T08:05:11;101128.00;;;6.78;54.67
53659;BME280;41524;35.624;139.698;2022-12-11T08:10:11;101135.00;;;6.30;56.38
53659;BME280;41524;35.624;139.698;2022-12-11T08:15:11;101134.00;;;7.20;54.63
53659;BME280;41524;35.624;139.698;2022-12-11T08:20:15;101156.00;;;7.07;53.15
53659;BME280;41524;35.624;139.698;2022-12-11T08:25:16;101165.00;;;7.05;53.09
53659;BME280;41524;35.624;139.698;2022-12-11T08:30:22;101164.00;;;6.84;54.38
53659;BME280;41524;35.624;139.698;2022-12-11T08:35:11;101168.00;;;7.19;53.25
53659;BME280;41524;35.624;139.698;2022-12-11T08:40:12;101173.00;;;8.74;50.15
53659;BME280;41524;35.624;139.698;2022-12-11T08:45:11;101179.00;;;6.52;53.76
53659;BME280;41524;35.624;139.698;2022-12-11T08:50:16;101189.00;;;7.48;51.83
53659;BME280;41524;35.624;139.698;2022-12-11T08:55:15;101197.00;;;6.66;53.12
53659;BME280;41524;35.624;139.698;2022-12-11T09:00:16;101200.00;;;7.51;52.08
53659;BME280;41524;35.624;139.698;2022-12-11T09:05:15;101208.00;;;6.43;52.95
53659;BME280;41524;35.624;139.698;2022-12-11T09:10:11;101214.00;;;6.60;52.05
53659;BME280;41524;35.624;139.698;2022-12-11T09:15:16;101221.00;;;8.48;49.93
53659;BME280;41524;35.624;139.698;2022-12-11T09:20:13;101228.00;;;7.43;49.33
53659;BME280;41524;35.624;139.698;2022-12-11T09:25:13;101230.00;;;7.38;49.61
53659;BME280;41524;35.624;139.698;2022-12-11T09:30:15;101232.00;;;8.61;47.71
53659;BME280;41524;35.624;139.698;2022-12-11T09:35:11;101244.00;;;6.86;50.89
53659;BME280;41524;35.624;139.698;2022-12-11T09:40:15;101239.00;;;7.26;48.83
53659;BME280;41524;35.624;139.698;2022-12-11T09:45:13;101245.00;;;6.50;50.10
53659;BME280;41524;35.624;139.698;2022-12-11T09:50:16;101255.00;;;8.67;46.60
53659;BME280;41524;35.624;139.698;2022-12-11T09:55:16;101272.00;;;9.68;44.32
53659;BME280;41524;35.624;139.698;2022-12-11T10:00:31;101269.00;;;10.24;42.48
53659;BME280;41524;35.624;139.698;2022-12-11T10:05:21;101288.00;;;9.08;42.33
53659;BME280;41524;35.624;139.698;2022-12-11T10:10:28;101298.00;;;6.31;47.11
53659;BME280;41524;35.624;139.698;2022-12-11T10:15:27;101301.00;;;9.05;42.94
53659;BME280;41524;35.624;139.698;2022-12-11T10:20:24;101313.00;;;8.06;44.19
53659;BME280;41524;35.624;139.698;2022-12-11T10:25:25;101312.00;;;9.13;42.29
53659;BME280;41524;35.624;139.698;2022-12-11T10:30:16;101319.00;;;10.51;38.97
53659;BME280;41524;35.624;139.698;2022-12-11T10:35:24;101330.00;;;10.06;41.62
53659;BME280;41524;35.624;139.698;2022-12-11T10:40:11;101325.00;;;9.73;39.34
53659;BME280;41524;35.624;139.698;2022-12-11T10:45:16;101318.00;;;9.01;39.55
53659;BME280;41524;35.624;139.698;2022-12-11T10:50:24;101326.00;;;9.10;40.07
53659;BME280;41524;35.624;139.698;2022-12-11T10:55:19;101332.00;;;6.14;44.98
53659;BME280;41524;35.624;139.698;2022-12-11T11:00:34;101329.00;;;9.79;39.46
53659;BME280;41524;35.624;139.698;2022-12-11T11:05:26;101341.00;;;9.67;38.96
53659;BME280;41524;35.624;139.698;2022-12-11T11:10:21;101351.00;;;9.41;39.32
53659;BME280;41524;35.624;139.698;2022-12-11T11:15:15;101350.00;;;9.32;39.03
53659;BME280;41524;35.624;139.698;2022-12-11T11:20:19;101354.00;;;9.03;39.56
53659;BME280;41524;35.624;139.698;2022-12-11T11:25:21;101352.00;;;8.80;39.98
53659;BME280;41524;35.624;139.698;2022-12-11T11:30:19;101363.00;;;10.01;38.31
53659;BME280;41524;35.624;139.698;2022-12-11T11:35:27;101378.00;;;9.39;38.87
53659;BME280;41524;35.624;139.698;2022-12-11T11:40:17;101372.00;;;9.89;38.91
53659;BME280;41524;35.624;139.698;2022-12-11T11:45:18;101371.00;;;10.42;37.71
53659;BME280;41524;35.624;139.698;2022-12-11T11:50:15;101387.00;;;9.36;39.27
53659;BME280;41524;35.624;139.698;2022-12-11T11:55:17;101392.00;;;9.09;39.87
53659;BME280;41524;35.624;139.698;2022-12-11T12:00:19;101386.00;;;8.93;40.36
53659;BME280;41524;35.624;139.698;2022-12-11T12:05:13;101386.00;;;7.73;42.70
53659;BME280;41524;35.624;139.698;2022-12-11T12:15:27;101381.00;;;9.43;41.07
53659;BME280;41524;35.624;139.698;2022-12-11T12:20:25;101378.00;;;9.78;40.74
53659;BME280;41524;35.624;139.698;2022-12-11T12:25:21;101389.00;;;9.20;42.18
53659;BME280;41524;35.624;139.698;2022-12-11T12:30:14;101376.00;;;9.27;42.29
53659;BME280;41524;35.624;139.698;2022-12-11T12:35:29;101376.00;;;9.94;41.14
53659;BME280;41524;35.624;139.698;2022-12-11T12:40:22;101379.00;;;9.86;42.61
53659;BME280;41524;35.624;139.698;2022-12-11T12:45:21;101400.00;;;9.27;43.25
53659;BME280;41524;35.624;139.698;2022-12-11T12:50:18;101404.00;;;9.65;44.15
53659;BME280;41524;35.624;139.698;2022-12-11T12:55:21;101419.00;;;9.01;44.45
53659;BME280;41524;35.624;139.698;2022-12-11T13:00:12;101418.00;;;9.37;43.93
53659;BME280;41524;35.624;139.698;2022-12-11T13:05:21;101424.00;;;9.40;44.09
53659;BME280;41524;35.624;139.698;2022-12-11T13:10:25;101439.00;;;8.91;43.87
53659;BME280;41524;35.624;139.698;2022-12-11T13:15:37;101435.00;;;9.21;45.47
53659;BME280;41524;35.624;139.698;2022-12-11T13:20:18;101431.00;;;9.70;45.29
53659;BME280;41524;35.624;139.698;2022-12-11T13:25:28;101438.00;;;9.78;44.15
53659;BME280;41524;35.624;139.698;2022-12-11T13:30:23;101433.00;;;8.85;45.68
53659;BME280;41524;35.624;139.698;2022-12-11T13:35:20;101417.00;;;8.11;49.11
53659;BME280;41524;35.624;139.698;2022-12-11T13:40:20;101404.00;;;6.05;50.68
53659;BME280;41524;35.624;139.698;2022-12-11T13:45:21;101415.00;;;8.69;46.16
53659;BME280;41524;35.624;139.698;2022-12-11T13:50:19;101427.00;;;8.63;46.69
53659;BME280;41524;35.624;139.698;2022-12-11T13:55:23;101430.00;;;8.74;46.63
53659;BME280;41524;35.624;139.698;2022-12-11T14:00:26;101407.00;;;8.80;46.88
53659;BME280;41524;35.624;139.698;2022-12-11T14:05:12;101399.00;;;8.22;46.84
53659;BME280;41524;35.624;139.698;2022-12-11T14:10:18;101422.00;;;8.63;46.60
53659;BME280;41524;35.624;139.698;2022-12-11T14:15:14;101428.00;;;9.02;47.43
53659;BME280;41524;35.624;139.698;2022-12-11T14:20:18;101412.00;;;8.07;48.29
53659;BME280;41524;35.624;139.698;2022-12-11T14:25:21;101410.00;;;8.64;45.44
53659;BME280;41524;35.624;139.698;2022-12-11T14:30:19;101414.00;;;6.84;49.22
53659;BME280;41524;35.624;139.698;2022-12-11T14:35:22;101418.00;;;8.83;45.90
53659;BME280;41524;35.624;139.698;2022-12-11T14:40:17;101426.00;;;9.05;44.14
53659;BME280;41524;35.624;139.698;2022-12-11T14:45:21;101436.00;;;8.94;44.75
53659;BME280;41524;35.624;139.698;2022-12-11T14:50:29;101455.00;;;7.46;46.89
53659;BME280;41524;35.624;139.698;2022-12-11T14:55:19;101462.00;;;8.94;45.12
53659;BME280;41524;35.624;139.698;2022-12-11T15:00:26;101473.00;;;8.42;44.02
53659;BME280;41524;35.624;139.698;2022-12-11T15:05:17;101476.00;;;9.22;42.84
53659;BME280;41524;35.624;139.698;2022-12-11T15:10:28;101477.00;;;8.44;44.94
53659;BME280;41524;35.624;139.698;2022-12-11T15:15:17;101483.00;;;8.73;43.66
53659;BME280;41524;35.624;139.698;2022-12-11T15:20:25;101490.00;;;8.71;44.25
53659;BME280;41524;35.624;139.698;2022-12-11T15:25:20;101482.00;;;8.76;43.79
53659;BME280;41524;35.624;139.698;2022-12-11T15:30:29;101483.00;;;9.40;42.62
53659;BME280;41524;35.624;139.698;2022-12-11T15:35:23;101492.00;;;8.30;44.45
53659;BME280;41524;35.624;139.698;2022-12-11T15:40:11;101488.00;;;8.76;44.35
53659;BME280;41524;35.624;139.698;2022-12-11T15:45:19;101483.00;;;9.19;43.26
53659;BME280;41524;35.624;139.698;2022-12-11T15:50:17;101476.00;;;8.07;45.97
53659;BME280;41524;35.624;139.698;2022-12-11T15:55:13;101476.00;;;9.65;42.56
53659;BME280;41524;35.624;139.698;2022-12-11T16:00:17;101476.00;;;8.58;42.93
53659;BME280;41524;35.624;139.698;2022-12-11T16:05:12;101483.00;;;8.94;44.69
53659;BME280;41524;35.624;139.698;2022-12-11T16:10:15;101477.00;;;8.24;44.60
53659;BME280;41524;35.624;139.698;2022-12-11T16:15:16;101477.00;;;6.85;47.68
53659;BME280;41524;35.624;139.698;2022-12-11T16:20:12;101479.00;;;7.79;43.44
53659;BME280;41524;35.624;139.698;2022-12-11T16:25:17;101485.00;;;8.26;42.72
53659;BME280;41524;35.624;139.698;2022-12-11T16:30:12;101482.00;;;8.57;42.26
53659;BME280;41524;35.624;139.698;2022-12-11T16:35:11;101467.00;;;8.13;41.68
53659;BME280;41524;35.624;139.698;2022-12-11T16:40:12;101466.00;;;7.83;41.82
53659;BME280;41524;35.624;139.698;2022-12-11T16:45:16;101469.00;;;8.26;41.86
53659;BME280;41524;35.624;139.698;2022-12-11T16:50:13;101469.00;;;8.25;40.71
53659;BME280;41524;35.624;139.698;2022-12-11T16:55:11;101486.00;;;7.37;43.53
53659;BME280;41524;35.624;139.698;2022-12-11T17:00:14;101496.00;;;8.03;41.41
53659;BME280;41524;35.624;139.698;2022-12-11T17:05:10;101491.00;;;7.70;41.76
53659;BME280;41524;35.624;139.698;2022-12-11T17:10:11;101476.00;;;7.68;42.75
53659;BME280;41524;35.624;139.698;2022-12-11T17:15:11;101479.00;;;7.74;40.99
53659;BME280;41524;35.624;139.698;2022-12-11T17:20:11;101471.00;;;7.80;40.31
53659;BME280;41524;35.624;139.698;2022-12-11T17:25:10;101485.00;;;7.88;39.31
53659;BME280;41524;35.624;139.698;2022-12-11T17:30:12;101517.00;;;8.22;39.08
53659;BME280;41524;35.624;139.698;2022-12-11T17:35:17;101529.00;;;8.02;38.94
53659;BME280;41524;35.624;139.698;2022-12-11T17:40:11;101534.00;;;7.29;39.14
53659;BME280;41524;35.624;139.698;2022-12-11T17:45:11;101548.00;;;7.25;39.18
53659;BME280;41524;35.624;139.698;2022-12-11T17:50:12;101538.00;;;8.30;38.85
53659;BME280;41524;35.624;139.698;2022-12-11T17:55:11;101538.00;;;7.89;38.72
53659;BME280;41524;35.624;139.698;2022-12-11T18:00:18;101546.00;;;7.62;38.88
53659;BME280;41524;35.624;139.698;2022-12-11T18:05:15;101545.00;;;7.60;38.39
53659;BME280;41524;35.624;139.698;2022-12-11T18:10:21;101532.00;;;7.91;39.14
53659;BME280;41524;35.624;139.698;2022-12-11T18:15:11;101528.00;;;7.67;39.67
53659;BME280;41524;35.624;139.698;2022-12-11T18:20:12;101540.00;;;7.24;40.26
53659;BME280;41524;35.624;139.698;2022-12-11T18:25:11;101555.00;;;7.73;39.71
53659;BME280;41524;35.624;139.698;2022-12-11T18:30:12;101556.00;;;7.86;39.82
53659;BME280;41524;35.624;139.698;2022-12-11T18:35:11;101555.00;;;8.02;39.69
53659;BME280;41524;35.624;139.698;2022-12-11T18:40:11;101568.00;;;7.89;39.58
53659;BME280;41524;35.624;139.698;2022-12-11T18:45:16;101576.00;;;5.41;43.63
53659;BME280;41524;35.624;139.698;2022-12-11T18:50:12;101587.00;;;4.47;45.83
53659;BME280;41524;35.624;139.698;2022-12-11T18:55:11;101580.00;;;6.75;42.06
53659;BME280;41524;35.624;139.698;2022-12-11T19:00:12;101587.00;;;7.21;41.11
53659;BME280;41524;35.624;139.698;2022-12-11T19:05:13;101598.00;;;7.00;41.85
53659;BME280;41524;35.624;139.698;2022-12-11T19:10:11;101597.00;;;5.96;43.77
53659;BME280;41524;35.624;139.698;2022-12-11T19:15:12;101599.00;;;4.37;46.32
53659;BME280;41524;35.624;139.698;2022-12-11T19:20:13;101582.00;;;7.33;41.57
53659;BME280;41524;35.624;139.698;2022-12-11T19:25:11;101581.00;;;8.17;39.34
53659;BME280;41524;35.624;139.698;2022-12-11T19:30:16;101585.00;;;8.30;40.17
53659;BME280;41524;35.624;139.698;2022-12-11T19:35:11;101573.00;;;7.78;40.65
53659;BME280;41524;35.624;139.698;2022-12-11T19:40:12;101574.00;;;7.29;41.08
53659;BME280;41524;35.624;139.698;2022-12-11T19:45:15;101586.00;;;7.41;40.77
53659;BME280;41524;35.624;139.698;2022-12-11T19:50:10;101587.00;;;7.85;40.28
53659;BME280;41524;35.624;139.698;2022-12-11T19:55:12;101583.00;;;6.55;42.52
53659;BME280;41524;35.624;139.698;2022-12-11T20:00:12;101593.00;;;6.89;41.70
53659;BME280;41524;35.624;139.698;2022-12-11T20:05:12;101618.00;;;7.55;40.98
53659;BME280;41524;35.624;139.698;2022-12-11T20:10:15;101607.00;;;7.87;40.43
53659;BME280;41524;35.624;139.698;2022-12-11T20:15:11;101608.00;;;7.76;40.65
53659;BME280;41524;35.624;139.698;2022-12-11T20:20:15;101634.00;;;7.07;40.99
53659;BME280;41524;35.624;139.698;2022-12-11T20:25:10;101674.00;;;6.06;42.79
53659;BME280;41524;35.624;139.698;2022-12-11T20:30:11;101688.00;;;6.06;42.47
53659;BME280;41524;35.624;139.698;2022-12-11T20:35:11;101684.00;;;6.76;40.97
53659;BME280;41524;35.624;139.698;2022-12-11T20:40:15;101696.00;;;7.30;40.56
53659;BME280;41524;35.624;139.698;2022-12-11T20:45:16;101698.00;;;7.01;40.78
53659;BME280;41524;35.624;139.698;2022-12-11T20:50:16;101698.00;;;6.94;40.64
53659;BME280;41524;35.624;139.698;2022-12-11T20:55:11;101701.00;;;6.83;41.06
53659;BME280;41524;35.624;139.698;2022-12-11T21:00:13;101705.00;;;6.86;41.04
53659;BME280;41524;35.624;139.698;2022-12-11T21:05:15;101721.00;;;6.31;42.74
53659;BME280;41524;35.624;139.698;2022-12-11T21:10:13;101737.00;;;5.73;43.48
53659;BME280;41524;35.624;139.698;2022-12-11T21:15:11;101750.00;;;7.37;42.40
53659;BME280;41524;35.624;139.698;2022-12-11T21:20:14;101764.00;;;6.11;44.61
53659;BME280;41524;35.624;139.698;2022-12-11T21:25:12;101774.00;;;6.91;41.10
53659;BME280;41524;35.624;139.698;2022-12-11T21:30:17;101779.00;;;5.81;43.68
53659;BME280;41524;35.624;139.698;2022-12-11T21:35:12;101784.00;;;6.12;42.29
53659;BME280;41524;35.624;139.698;2022-12-11T21:40:16;101788.00;;;6.50;41.35
53659;BME280;41524;35.624;139.698;2022-12-11T21:45:11;101793.00;;;6.16;44.81
53659;BME280;41524;35.624;139.698;2022-12-11T21:50:12;101807.00;;;6.53;43.64
53659;BME280;41524;35.624;139.698;2022-12-11T21:55:11;101814.00;;;5.66;42.47
53659;BME280;41524;35.624;139.698;2022-12-11T22:00:22;101822.00;;;5.65;42.55
53659;BME280;41524;35.624;139.698;2022-12-11T22:05:11;101826.00;;;5.03;44.36
53659;BME280;41524;35.624;139.698;2022-12-11T22:10:13;101835.00;;;5.32;43.20
53659;BME280;41524;35.624;139.698;2022-12-11T22:15:15;101853.00;;;7.35;39.97
53659;BME280;41524;35.624;139.698;2022-12-11T22:20:11;101858.00;;;5.97;43.29
53659;BME280;41524;35.624;139.698;2022-12-11T22:25:11;101861.00;;;6.41;44.94
53659;BME280;41524;35.624;139.698;2022-12-11T22:30:12;101865.00;;;4.43;46.11
53659;BME280;41524;35.624;139.698;2022-12-11T22:35:11;101883.00;;;4.69;46.15
53659;BME280;41524;35.624;139.698;2022-12-11T22:40:12;101900.00;;;4.76;46.81
53659;BME280;41524;35.624;139.698;2022-12-11T22:45:21;101905.00;;;7.77;41.46
53659;BME280;41524;35.624;139.698;2022-12-11T22:50:12;101905.00;;;6.44;41.76
53659;BME280;41524;35.624;139.698;2022-12-11T22:55:17;101901.00;;;10.46;34.58
53659;BME280;41524;35.624;139.698;2022-12-11T23:00:16;101918.00;;;9.46;35.77
53659;BME280;41524;35.624;139.698;2022-12-11T23:05:16;101927.00;;;7.91;38.22
53659;BME280;41524;35.624;139.698;2022-12-11T23:10:11;101935.00;;;9.85;34.84
53659;BME280;41524;35.624;139.698;2022-12-11T23:15:12;101941.00;;;9.08;33.53
53659;BME280;41524;35.624;139.698;2022-12-11T23:20:12;101964.00;;;8.71;35.31
53659;BME280;41524;35.624;139.698;2022-12-11T23:25:13;101969.00;;;7.60;34.91
53659;BME280;41524;35.624;139.698;2022-12-11T23:30:13;101984.00;;;9.27;33.78
53659;BME280;41524;35.624;139.698;2022-12-11T23:35:11;101978.00;;;8.14;34.11
53659;BME280;41524;35.624;139.698;2022-12-11T23:40:12;101971.00;;;9.17;33.15
53659;BME280;41524;35.624;139.698;2022-12-11T23:45:11;101973.00;;;10.57;31.56
53659;BME280;41524;35.624;139.698;2022-12-11T23:50:14;101981.00;;;12.24;28.64
53659;BME280;41524;35.624;139.698;2022-12-11T23:55:13;101971.00;;;11.66;28.01
